Allenwood, New York
Current Conditions -  °F | °C
As of 12:51 PM on Saturday 20 Dec 2014 (Local Time) from KLGA Reporting Station
Overcast Overcast  
Wind Chill: 26°   Ceiling: 3000
Heat Index: 32°   Visibility: 10mi
Dew Point: 20°   Wind: 7mph
Humidity: 61%   Direction: 10°N
Pressure: 30.26"   Gusts: NA
Location:  40.786°N, 73.7291°W
Report Text: KLGA 201751Z 01006KT 10SM OVC030 00/M07 A3026 RMK AO2 SLP248 T00001067 10000 21011 58015
Loading
Personal Weather Stations






























Interactive Weather Map New forecast layout! Learn more

10-Day Weather Forecast

Advertisements
Track Severe Weather on mobile